Time;durP1;ratioP1;P1;durP2;ratioP2;P2;SDS_P1;SDS_P2;PMS_P1;PMS_P2;Temp;Humidity;BMP_temperature;BMP_pressure;BME280_temperature;BME280_humidity;BME280_pressure;Samples;Min_cycle;Max_cycle;Signal;HPM_P1;HPM_P2
2022/10/04 00:02:33;;;;;;;;;;;;;;;12.37;100.00;100222.41;10064892;29;19938;-72
2022/10/04 00:07:40;;;;;;;;;;;;;;;12.28;100.00;100219.16;10064460;29;19939;-72
2022/10/04 00:12:47;;;;;;;;;;;;;;;12.32;100.00;100215.63;10064241;29;19971;-78
2022/10/04 00:18:01;;;;;;;;;;;;;;;12.32;100.00;100207.81;10064252;29;19939;-77
2022/10/04 00:23:25;;;;;;;;;;;;;;;12.29;100.00;100210.44;10064021;29;19946;-73
2022/10/04 00:28:42;;;;;;;;;;;;;;;12.24;100.00;100196.66;10060106;29;19939;-71
2022/10/04 00:33:46;;;;;;;;;;;;;;;12.27;100.00;100191.44;10063940;29;19954;-71
2022/10/04 00:39:01;;;;;;;;;;;;;;;12.22;100.00;100186.28;10063518;29;20015;-73
2022/10/04 00:44:10;;;;;;;;;;;;;;;12.31;100.00;100177.44;10063321;29;19938;-73
2022/10/04 00:49:15;;;;;;;;;;;;;;;12.22;100.00;100188.03;10063020;29;20246;-73
2022/10/04 00:54:19;;;;;;;;;;;;;;;12.30;100.00;100188.75;9725022;29;10000076;-69
2022/10/04 00:59:29;;;;;;;;;;;;;;;12.21;100.00;100189.78;10059401;29;20307;-71
2022/10/04 01:04:38;;;;;;;;;;;;;;;12.23;100.00;100180.22;10060142;29;19974;-68
2022/10/04 01:09:46;;;;;;;;;;;;;;;12.26;100.00;100177.56;10059491;29;19939;-72
2022/10/04 01:14:55;;;;;;;;;;;;;;;12.22;100.00;100182.81;10059548;29;19939;-65
2022/10/04 01:19:58;;;;;;;;;;;;;;;12.13;100.00;100163.03;10059085;29;19935;-70
2022/10/04 01:25:03;;;;;;;;;;;;;;;12.15;100.00;100170.84;10059410;29;20352;-70
2022/10/04 01:30:09;;;;;;;;;;;;;;;12.11;100.00;100180.47;9723427;29;10001292;-71
2022/10/04 01:35:13;;;;;;;;;;;;;;;12.18;100.00;100181.19;10059351;29;19928;-70
2022/10/04 01:40:17;;;;;;;;;;;;;;;12.08;100.00;100177.88;10058713;29;20026;-68
2022/10/04 01:45:24;;;;;;;;;;;;;;;12.15;100.00;100187.28;10061115;29;20357;-75
2022/10/04 01:50:29;;;;;;;;;;;;;;;12.15;100.00;100183.88;10062154;29;20019;-72
2022/10/04 01:55:35;;;;;;;;;;;;;;;12.26;100.00;100192.28;9723875;29;10000523;-72
2022/10/04 02:00:41;;;;;;;;;;;;;;;12.17;100.00;100195.06;10058602;29;19934;-71
2022/10/04 02:05:48;;;;;;;;;;;;;;;12.26;100.00;100200.09;10064986;29;20342;-71
2022/10/04 02:10:53;;;;;;;;;;;;;;;12.21;100.00;100199.34;10065940;29;19982;-71
2022/10/04 02:15:57;;;;;;;;;;;;;;;12.11;100.00;100208.22;10065816;29;20014;-74
2022/10/04 02:21:01;;;;;;;;;;;;;;;12.15;100.00;100199.47;10065774;29;19935;-72
2022/10/04 02:26:05;;;;;;;;;;;;;;;12.11;100.00;100203.88;10065158;29;20015;-69
2022/10/04 02:36:32;;;;;;;;;;;;;;;12.14;100.00;100193.41;9729627;29;10000477;-64
2022/10/04 02:41:38;;;;;;;;;;;;;;;12.13;100.00;100194.28;10065043;29;19934;-63
2022/10/04 02:46:45;;;;;;;;;;;;;;;12.18;100.00;100207.22;10064872;29;20034;-64
2022/10/04 02:51:51;;;;;;;;;;;;;;;12.10;100.00;100211.69;10064122;29;19946;-63
2022/10/04 02:56:57;;;;;;;;;;;;;;;12.18;100.00;100200.25;10063987;29;20019;-66
2022/10/04 03:02:01;;;;;;;;;;;;;;;12.20;100.00;100203.66;10063764;29;19939;-75
2022/10/04 03:07:06;;;;;;;;;;;;;;;12.30;100.00;100201.78;10064153;29;19939;-76
2022/10/04 03:12:12;;;;;;;;;;;;;;;12.23;100.00;100198.44;10063931;29;20002;-75
2022/10/04 03:17:16;;;;;;;;;;;;;;;12.32;100.00;100207.81;10062741;29;20032;-76
2022/10/04 03:22:19;;;;;;;;;;;;;;;12.18;100.00;100204.59;9696783;29;10000116;-72
2022/10/04 03:27:27;;;;;;;;;;;;;;;12.13;100.00;100202.06;10026483;29;20038;-75
2022/10/04 03:32:31;;;;;;;;;;;;;;;12.18;100.00;100215.84;10027755;29;20257;-74
2022/10/04 03:37:35;;;;;;;;;;;;;;;12.15;100.00;100210.72;10027674;29;20246;-76
2022/10/04 03:42:40;;;;;;;;;;;;;;;12.13;100.00;100216.84;10027262;29;20011;-72
2022/10/04 03:47:44;;;;;;;;;;;;;;;12.08;100.00;100216.91;10027141;29;19929;-72
2022/10/04 03:52:50;;;;;;;;;;;;;;;12.17;100.00;100218.47;10027047;29;19939;-73
2022/10/04 03:57:54;;;;;;;;;;;;;;;12.19;100.00;100224.53;10027004;29;20027;-76
2022/10/04 04:03:00;;;;;;;;;;;;;;;12.20;100.00;100228.84;10026305;29;19928;-74
2022/10/04 04:08:07;;;;;;;;;;;;;;;12.21;100.00;100225.34;10026528;29;19928;-74
2022/10/04 04:13:20;;;;;;;;;;;;;;;12.30;100.00;100233.00;9706809;29;9999976;-75
2022/10/04 04:18:24;;;;;;;;;;;;;;;12.29;100.00;100223.47;10061167;29;20255;-73
2022/10/04 04:23:29;;;;;;;;;;;;;;;12.31;100.00;100237.31;10060934;29;20342;-73
2022/10/04 04:28:39;;;;;;;;;;;;;;;12.27;100.00;100246.06;10061434;29;19942;-74
2022/10/04 04:33:44;;;;;;;;;;;;;;;12.29;100.00;100252.09;10062327;29;20059;-76
2022/10/04 04:44:16;;;;;;;;;;;;;;;12.35;100.00;100252.84;10063776;29;20003;-75
2022/10/04 04:49:19;;;;;;;;;;;;;;;12.32;100.00;100252.03;10063417;29;19939;-75
2022/10/04 04:54:24;;;;;;;;;;;;;;;12.32;100.00;100257.25;10063018;29;19979;-71
2022/10/04 04:59:28;;;;;;;;;;;;;;;12.28;100.00;100272.06;10062690;29;19928;-74
2022/10/04 05:04:31;;;;;;;;;;;;;;;12.40;100.00;100270.97;10062708;29;19928;-71
2022/10/04 05:09:36;;;;;;;;;;;;;;;12.33;100.00;100285.84;10062458;29;19936;-71
2022/10/04 05:14:47;;;;;;;;;;;;;;;12.29;100.00;100286.78;10062214;29;20278;-75
2022/10/04 05:19:51;;;;;;;;;;;;;;;12.38;100.00;100280.53;10062260;29;20374;-74
2022/10/04 05:24:56;;;;;;;;;;;;;;;12.38;100.00;100301.38;10062580;29;19995;-73
2022/10/04 05:30:05;;;;;;;;;;;;;;;12.35;100.00;100310.09;10061869;29;19928;-73
2022/10/04 05:35:14;;;;;;;;;;;;;;;12.46;100.00;100315.97;10062310;29;20007;-78
2022/10/04 05:40:27;;;;;;;;;;;;;;;12.45;100.00;100323.78;10070209;29;19944;-73
2022/10/04 05:45:32;;;;;;;;;;;;;;;12.49;100.00;100330.69;10071222;29;20330;-75
2022/10/04 05:50:39;;;;;;;;;;;;;;;12.47;100.00;100338.50;10073271;29;19979;-73
2022/10/04 05:55:49;;;;;;;;;;;;;;;12.55;100.00;100343.56;10073255;29;20027;-74
2022/10/04 06:01:09;;;;;;;;;;;;;;;12.58;100.00;100344.38;10069977;29;19928;-75
2022/10/04 06:06:16;;;;;;;;;;;;;;;12.67;100.00;100348.53;10066231;29;20375;-75
2022/10/04 06:11:28;;;;;;;;;;;;;;;12.68;100.00;100345.91;9399992;29;10000408;-76
2022/10/04 06:16:38;;;;;;;;;;;;;;;12.58;100.00;100356.56;10069662;29;20384;-77
2022/10/04 06:21:47;;;;;;;;;;;;;;;12.85;100.00;100355.16;10069757;29;19928;-76
2022/10/04 06:26:53;;;;;;;;;;;;;;;12.86;100.00;100362.09;10069485;29;19932;-73
2022/10/04 06:32:13;;;;;;;;;;;;;;;12.87;100.00;100372.47;10069722;29;20396;-72
2022/10/04 06:37:27;;;;;;;;;;;;;;;12.85;100.00;100361.22;10066043;29;20122;-74
2022/10/04 06:42:48;;;;;;;;;;;;;;;12.92;100.00;100381.06;10070800;29;19932;-75
2022/10/04 06:47:59;;;;;;;;;;;;;;;12.79;100.00;100387.38;10059930;29;19928;-73
2022/10/04 06:53:19;;;;;;;;;;;;;;;12.78;100.00;100417.78;10063574;29;20228;-74
2022/10/04 06:58:32;;;;;;;;;;;;;;;12.96;100.00;100400.94;10053666;29;19969;-74
2022/10/04 07:03:39;;;;;;;;;;;;;;;13.03;100.00;100392.16;10025534;29;19967;-75
2022/10/04 07:08:47;;;;;;;;;;;;;;;12.98;100.00;100420.00;10025372;29;19939;-72
2022/10/04 07:13:55;;;;;;;;;;;;;;;13.01;100.00;100425.16;10052328;29;19931;-71
2022/10/04 07:19:07;;;;;;;;;;;;;;;13.04;100.00;100430.38;10051574;29;19939;-72
2022/10/04 07:24:12;;;;;;;;;;;;;;;13.04;100.00;100445.13;10025046;29;20657;-74
2022/10/04 07:29:22;;;;;;;;;;;;;;;13.04;100.00;100438.19;10024655;29;19938;-70
2022/10/04 07:34:29;;;;;;;;;;;;;;;13.20;100.00;100441.34;10024483;29;19971;-72
2022/10/04 07:39:34;;;;;;;;;;;;;;;13.38;100.00;100438.38;10024964;29;19929;-73
2022/10/04 07:44:38;;;;;;;;;;;;;;;13.59;100.00;100440.53;10024354;29;20409;-72
2022/10/04 07:49:42;;;;;;;;;;;;;;;13.62;100.00;100457.00;10036401;29;20014;-69
2022/10/04 07:54:50;;;;;;;;;;;;;;;13.75;100.00;100453.22;10061976;29;19928;-72
2022/10/04 07:59:57;;;;;;;;;;;;;;;13.74;100.00;100459.34;10060706;29;20320;-73
2022/10/04 08:05:09;;;;;;;;;;;;;;;13.91;100.00;100465.03;10061999;29;19984;-71
2022/10/04 08:10:21;;;;;;;;;;;;;;;13.89;100.00;100466.00;10061417;29;19936;-69
2022/10/04 08:15:35;;;;;;;;;;;;;;;14.00;99.17;100481.38;10061450;29;19932;-67
2022/10/04 08:20:44;;;;;;;;;;;;;;;14.03;97.67;100470.91;10043409;29;20019;-71
2022/10/04 08:25:53;;;;;;;;;;;;;;;14.20;96.44;100461.81;10022323;29;19933;-67
2022/10/04 08:31:04;;;;;;;;;;;;;;;14.26;96.09;100466.91;10022316;29;19929;-68
2022/10/04 08:36:15;;;;;;;;;;;;;;;14.29;94.86;100472.03;10022065;29;19928;-68
2022/10/04 08:41:46;;;;;;;;;;;;;;;14.35;94.19;100474.53;10022648;29;20011;-69
2022/10/04 08:47:12;;;;;;;;;;;;;;;14.42;93.24;100478.72;10000675;29;20299;-71
2022/10/04 08:52:33;;;;;;;;;;;;;;;14.49;92.25;100487.25;10009626;29;20251;-69
2022/10/04 08:57:50;;;;;;;;;;;;;;;14.57;92.50;100491.38;10059613;29;19935;-69
2022/10/04 09:03:08;;;;;;;;;;;;;;;14.63;91.08;100503.44;10059027;29;20060;-70
2022/10/04 09:08:22;;;;;;;;;;;;;;;14.61;90.37;100503.50;10057465;29;20410;-73
2022/10/04 09:13:34;;;;;;;;;;;;;;;14.64;88.90;100516.47;10058509;29;19932;-73
2022/10/04 09:18:50;;;;;;;;;;;;;;;14.60;86.73;100516.59;10058848;29;19942;-71
2022/10/04 09:24:06;;;;;;;;;;;;;;;14.62;86.91;100518.25;10058432;29;20230;-69
2022/10/04 09:29:23;;;;;;;;;;;;;;;14.74;85.37;100517.09;10059682;29;19939;-75
2022/10/04 09:34:32;;;;;;;;;;;;;;;14.78;85.07;100524.84;10062075;29;19936;-69
2022/10/04 09:39:51;;;;;;;;;;;;;;;14.72;85.13;100531.97;10061739;29;20335;-70
2022/10/04 09:45:14;;;;;;;;;;;;;;;14.71;85.59;100538.94;10061821;29;19939;-69
2022/10/04 09:50:30;;;;;;;;;;;;;;;14.63;84.37;100547.88;10058056;29;19928;-68
2022/10/04 09:55:41;;;;;;;;;;;;;;;14.56;84.72;100554.13;10023449;29;20459;-69
2022/10/04 10:00:50;;;;;;;;;;;;;;;14.58;84.82;100558.41;10022960;29;19928;-71
2022/10/04 10:06:07;;;;;;;;;;;;;;;14.59;85.20;100548.81;10023149;29;20015;-69
2022/10/04 10:16:42;;;;;;;;;;;;;;;14.76;84.37;100565.81;10023155;29;19935;-69
2022/10/04 10:21:51;;;;;;;;;;;;;;;14.87;84.31;100566.44;10022924;29;19943;-70
2022/10/04 10:27:02;;;;;;;;;;;;;;;15.63;82.08;100567.09;10029692;29;20023;-68
2022/10/04 10:32:20;;;;;;;;;;;;;;;15.79;80.00;100578.88;9697517;29;10000403;-74
2022/10/04 10:37:34;;;;;;;;;;;;;;;15.64;79.36;100571.41;10050165;29;19938;-73
2022/10/04 10:42:50;;;;;;;;;;;;;;;15.51;80.41;100588.34;10049233;29;19939;-73
2022/10/04 10:48:00;;;;;;;;;;;;;;;15.48;80.10;100580.59;10026184;29;20023;-72
2022/10/04 10:53:28;;;;;;;;;;;;;;;15.59;79.39;100575.91;10042813;29;20262;-75
2022/10/04 10:58:54;;;;;;;;;;;;;;;16.29;74.55;100580.03;10063810;29;19980;-75
2022/10/04 11:04:07;;;;;;;;;;;;;;;16.42;72.90;100581.38;10039731;29;20006;-74
2022/10/04 11:09:37;;;;;;;;;;;;;;;17.85;68.80;100594.97;10028248;29;19977;-74
2022/10/04 11:14:55;;;;;;;;;;;;;;;17.45;66.39;100605.97;10028128;29;19929;-73
2022/10/04 11:20:10;;;;;;;;;;;;;;;17.52;67.48;100599.66;10028131;29;19939;-71
2022/10/04 11:25:24;;;;;;;;;;;;;;;17.67;65.79;100606.97;10058918;29;19929;-73
2022/10/04 11:30:38;;;;;;;;;;;;;;;17.14;66.93;100624.53;9728980;29;9999855;-72
2022/10/04 11:35:56;;;;;;;;;;;;;;;16.63;68.53;100620.06;10028655;29;19928;-72
2022/10/04 11:41:09;;;;;;;;;;;;;;;17.45;66.30;100626.16;10024163;29;20255;-76
2022/10/04 11:46:20;;;;;;;;;;;;;;;16.62;68.69;100634.91;10024199;29;19929;-75
2022/10/04 11:51:53;;;;;;;;;;;;;;;18.02;64.22;100629.38;10023738;29;19991;-72
2022/10/04 11:57:14;;;;;;;;;;;;;;;18.80;62.81;100629.03;10023487;29;20077;-73
2022/10/04 12:02:36;;;;;;;;;;;;;;;19.22;61.49;100622.03;10024265;29;19933;-73
2022/10/04 12:07:50;;;;;;;;;;;;;;;19.80;60.45;100631.00;10024098;29;19928;-73
2022/10/04 12:13:05;;;;;;;;;;;;;;;18.22;62.90;100642.66;10025932;29;20040;-73
2022/10/04 12:18:16;;;;;;;;;;;;;;;17.57;64.74;100646.75;10025822;29;19939;-72
2022/10/04 12:23:41;;;;;;;;;;;;;;;17.33;65.57;100651.88;10025983;29;19928;-71
2022/10/04 12:28:51;;;;;;;;;;;;;;;16.93;66.06;100654.03;10025587;29;19951;-72
2022/10/04 12:34:07;;;;;;;;;;;;;;;16.74;66.91;100654.69;10025814;29;20020;-74
2022/10/04 12:39:19;;;;;;;;;;;;;;;16.86;67.55;100665.63;10025495;29;19929;-74
2022/10/04 12:44:28;;;;;;;;;;;;;;;16.71;67.83;100665.22;10025101;29;20313;-73
2022/10/04 12:49:36;;;;;;;;;;;;;;;16.44;69.20;100687.84;10024051;29;20373;-72
2022/10/04 12:54:43;;;;;;;;;;;;;;;16.35;70.06;100695.97;9701870;29;9999807;-72
2022/10/04 12:59:53;;;;;;;;;;;;;;;16.14;71.57;100686.09;10021251;29;19929;-73
2022/10/04 13:05:02;;;;;;;;;;;;;;;16.12;72.43;100698.34;10021339;29;19932;-73
2022/10/04 13:10:24;;;;;;;;;;;;;;;16.03;73.07;100702.09;10021214;29;20015;-73
2022/10/04 13:15:29;;;;;;;;;;;;;;;16.17;73.43;100694.72;10021166;29;19959;-71
2022/10/04 13:20:59;;;;;;;;;;;;;;;16.95;71.37;100699.44;10034235;29;19954;-72
2022/10/04 13:26:14;;;;;;;;;;;;;;;17.33;69.77;100709.59;10021054;29;20362;-72
2022/10/04 13:31:23;;;;;;;;;;;;;;;16.99;70.69;100708.94;10058349;29;20364;-72
2022/10/04 13:36:30;;;;;;;;;;;;;;;16.70;71.08;100708.09;10050550;29;19928;-73
2022/10/04 13:41:44;;;;;;;;;;;;;;;16.40;71.44;100714.16;10058400;29;19961;-71
2022/10/04 13:46:59;;;;;;;;;;;;;;;16.20;72.02;100719.97;10057097;29;19928;-72
2022/10/04 13:57:42;;;;;;;;;;;;;;;16.21;72.50;100726.91;10058225;29;19928;-72
2022/10/04 14:02:55;;;;;;;;;;;;;;;16.28;73.64;100730.22;10065558;29;20479;-74
2022/10/04 14:08:11;;;;;;;;;;;;;;;16.22;73.72;100727.78;10065229;29;19939;-75
2022/10/04 14:13:35;;;;;;;;;;;;;;;16.12;73.83;100733.28;10063908;29;20011;-75
2022/10/04 14:18:59;;;;;;;;;;;;;;;15.90;74.77;100739.09;10063260;29;19942;-73
2022/10/04 14:24:21;;;;;;;;;;;;;;;15.82;74.82;100741.94;10064390;29;19932;-73
2022/10/04 14:29:45;;;;;;;;;;;;;;;15.74;75.24;100751.72;10064414;29;20007;-74
2022/10/04 14:34:57;;;;;;;;;;;;;;;15.74;75.41;100754.34;10061405;29;19939;-75
2022/10/04 14:40:10;;;;;;;;;;;;;;;15.72;75.93;100771.81;10063709;29;20355;-74
2022/10/04 14:45:20;;;;;;;;;;;;;;;15.74;76.58;100774.41;10058051;29;19935;-77
2022/10/04 14:50:27;;;;;;;;;;;;;;;15.69;76.74;100784.13;10062976;29;19928;-73
2022/10/04 14:55:37;;;;;;;;;;;;;;;15.63;77.19;100792.13;10061902;29;19936;-76
2022/10/04 15:00:55;;;;;;;;;;;;;;;15.64;77.24;100781.63;10061639;29;20015;-74
2022/10/04 15:06:05;;;;;;;;;;;;;;;15.67;76.89;100794.63;10061208;29;20275;-73
2022/10/04 15:11:10;;;;;;;;;;;;;;;15.58;77.49;100794.84;10061877;29;19939;-77
2022/10/04 15:16:20;;;;;;;;;;;;;;;15.52;77.79;100804.59;10059077;29;19928;-75
2022/10/04 15:21:32;;;;;;;;;;;;;;;15.42;77.90;100801.34;10062716;29;20003;-76
2022/10/04 15:26:48;;;;;;;;;;;;;;;15.38;78.07;100806.63;10058620;29;20019;-71
2022/10/04 15:32:03;;;;;;;;;;;;;;;15.44;78.41;100814.38;10061539;29;20274;-72
2022/10/04 15:37:14;;;;;;;;;;;;;;;15.38;78.50;100823.19;10062540;29;19951;-69
2022/10/04 15:42:23;;;;;;;;;;;;;;;15.30;78.80;100830.34;10062164;29;19939;-70
2022/10/04 15:47:29;;;;;;;;;;;;;;;15.31;78.95;100832.06;10062401;29;19928;-69
2022/10/04 15:52:42;;;;;;;;;;;;;;;15.34;79.80;100844.22;10062018;29;19928;-68
2022/10/04 15:58:02;;;;;;;;;;;;;;;15.19;80.34;100845.41;10062154;29;20223;-69
2022/10/04 16:03:16;;;;;;;;;;;;;;;15.15;80.98;100862.06;10061797;29;20358;-71
2022/10/04 16:08:25;;;;;;;;;;;;;;;15.11;82.05;100865.63;10059833;29;20366;-69
2022/10/04 16:13:37;;;;;;;;;;;;;;;15.03;83.10;100868.38;10060882;29;19928;-71
2022/10/04 16:18:44;;;;;;;;;;;;;;;14.98;83.69;100880.69;10061206;29;20342;-74
2022/10/04 16:23:48;;;;;;;;;;;;;;;15.00;84.16;100880.66;10054018;29;19933;-71
2022/10/04 16:29:12;;;;;;;;;;;;;;;14.96;84.92;100892.94;10053775;29;20019;-71
2022/10/04 16:34:26;;;;;;;;;;;;;;;15.04;84.92;100884.94;10055389;29;19928;-72
2022/10/04 16:44:59;;;;;;;;;;;;;;;14.82;85.74;100901.94;10060117;29;20030;-69
2022/10/04 16:50:04;;;;;;;;;;;;;;;14.76;86.49;100907.25;10054080;29;20022;-71
2022/10/04 16:55:21;;;;;;;;;;;;;;;14.75;86.74;100910.78;10060098;29;19967;-70
2022/10/04 17:00:33;;;;;;;;;;;;;;;14.75;86.79;100916.00;10059131;29;20385;-73
2022/10/04 17:05:46;;;;;;;;;;;;;;;14.76;86.89;100915.97;10059757;29;20361;-70
2022/10/04 17:11:16;;;;;;;;;;;;;;;14.68;87.19;100923.09;10059447;29;19932;-70
2022/10/04 17:16:22;;;;;;;;;;;;;;;14.64;88.17;100925.78;10059562;29;20333;-70
2022/10/04 17:21:31;;;;;;;;;;;;;;;14.49;88.93;100921.69;10059256;29;19928;-75
2022/10/04 17:26:50;;;;;;;;;;;;;;;14.38;89.91;100933.19;10058993;29;19939;-73
2022/10/04 17:31:56;;;;;;;;;;;;;;;14.47;89.28;100939.13;10058699;29;19947;-75
2022/10/04 17:37:04;;;;;;;;;;;;;;;14.39;90.31;100938.38;10058474;29;19932;-74
2022/10/04 17:42:13;;;;;;;;;;;;;;;14.36;89.97;100937.56;10050010;29;19996;-74
2022/10/04 17:47:19;;;;;;;;;;;;;;;14.37;89.93;100936.69;10047251;29;19932;-75
2022/10/04 17:57:59;;;;;;;;;;;;;;;14.17;91.22;100952.63;10056706;29;20019;-73
2022/10/04 18:03:08;;;;;;;;;;;;;;;14.17;91.21;100952.63;10056548;29;19929;-75
2022/10/04 18:08:16;;;;;;;;;;;;;;;14.15;91.34;100958.78;10056612;29;20265;-74
2022/10/04 18:13:23;;;;;;;;;;;;;;;14.17;91.45;100967.47;10045931;29;19999;-75
2022/10/04 18:18:29;;;;;;;;;;;;;;;14.17;91.02;100964.84;10056433;29;19928;-74
2022/10/04 18:23:37;;;;;;;;;;;;;;;14.08;90.81;100971.03;10056737;29;20281;-76
2022/10/04 18:28:42;;;;;;;;;;;;;;;14.01;91.16;100981.59;10056376;29;19932;-75
2022/10/04 18:33:49;;;;;;;;;;;;;;;13.90;91.38;100979.16;10056101;29;19928;-75
2022/10/04 18:39:04;;;;;;;;;;;;;;;14.03;90.39;100987.66;10056589;29;20287;-73
2022/10/04 18:44:13;;;;;;;;;;;;;;;14.00;89.90;100995.53;10058645;29;20019;-73
2022/10/04 18:49:19;;;;;;;;;;;;;;;13.88;91.04;101000.03;10064412;29;20015;-74
2022/10/04 18:54:29;;;;;;;;;;;;;;;13.86;90.89;100998.31;10064326;29;19935;-74
2022/10/04 19:05:07;;;;;;;;;;;;;;;13.73;91.54;101018.50;10063441;29;19928;-74
2022/10/04 19:10:24;;;;;;;;;;;;;;;13.69;91.67;101022.03;10062959;29;20030;-74
2022/10/04 19:15:38;;;;;;;;;;;;;;;13.73;91.96;101025.47;10063370;29;19938;-74
2022/10/04 19:20:45;;;;;;;;;;;;;;;13.63;92.35;101031.69;10063487;29;19940;-73
2022/10/04 19:25:53;;;;;;;;;;;;;;;13.43;94.12;101031.03;10062804;29;19928;-75
2022/10/04 19:31:21;;;;;;;;;;;;;;;13.50;93.38;101023.13;10059885;29;19935;-74
2022/10/04 19:36:44;;;;;;;;;;;;;;;13.52;93.01;101034.41;10038676;29;19928;-75
2022/10/04 19:41:53;;;;;;;;;;;;;;;13.51;92.88;101037.88;10059860;29;19963;-75
2022/10/04 19:46:59;;;;;;;;;;;;;;;13.43;92.91;101042.31;10062931;29;19928;-74
2022/10/04 19:52:15;;;;;;;;;;;;;;;13.39;93.29;101047.59;10062755;29;19932;-77
2022/10/04 19:57:24;;;;;;;;;;;;;;;13.42;93.00;101048.44;10062895;29;19938;-75
2022/10/04 20:02:27;;;;;;;;;;;;;;;13.38;92.99;101057.16;10063337;29;20018;-74
2022/10/04 20:07:30;;;;;;;;;;;;;;;13.32;93.49;101059.81;10063825;29;19935;-76
2022/10/04 20:12:37;;;;;;;;;;;;;;;13.23;93.41;101069.47;10064333;29;19964;-75
2022/10/04 20:17:41;;;;;;;;;;;;;;;13.35;93.51;101078.06;10064257;29;19939;-75
2022/10/04 20:22:54;;;;;;;;;;;;;;;13.26;93.17;101072.94;10062240;29;20027;-75
2022/10/04 20:28:02;;;;;;;;;;;;;;;13.25;93.48;101085.97;10064106;29;20242;-78
2022/10/04 20:33:05;;;;;;;;;;;;;;;13.19;93.75;101088.63;10063912;29;19954;-74
2022/10/04 20:38:15;;;;;;;;;;;;;;;13.13;94.95;101092.13;10062946;29;19928;-77
2022/10/04 20:43:52;;;;;;;;;;;;;;;13.09;94.52;101103.50;10063265;29;19928;-75
2022/10/04 20:48:55;;;;;;;;;;;;;;;13.17;94.04;101101.69;10061973;29;20014;-75
2022/10/04 20:53:59;;;;;;;;;;;;;;;13.13;94.22;101099.97;10062872;29;19929;-75
2022/10/04 20:59:03;;;;;;;;;;;;;;;13.08;94.68;101104.34;10062794;29;19934;-77
2022/10/04 21:04:14;;;;;;;;;;;;;;;13.07;94.70;101109.59;10062704;29;20005;-75
2022/10/04 21:09:17;;;;;;;;;;;;;;;13.12;94.58;101106.06;10061967;29;19972;-74
2022/10/04 21:14:25;;;;;;;;;;;;;;;13.06;94.68;101110.47;10062420;29;19939;-76
2022/10/04 21:19:52;;;;;;;;;;;;;;;13.05;95.20;101109.59;10060098;29;19928;-77
2022/10/04 21:24:56;;;;;;;;;;;;;;;13.15;94.88;101118.22;10061225;29;19932;-73
2022/10/04 21:30:01;;;;;;;;;;;;;;;13.11;95.09;101120.00;10061467;29;19936;-77
2022/10/04 21:35:04;;;;;;;;;;;;;;;13.05;95.36;101125.22;10062198;29;20413;-74
2022/10/04 21:40:08;;;;;;;;;;;;;;;13.03;94.87;101126.13;10062135;29;20238;-74
2022/10/04 21:45:12;;;;;;;;;;;;;;;12.96;96.02;101108.78;10062082;29;20258;-75
2022/10/04 21:50:15;;;;;;;;;;;;;;;12.96;95.93;101103.56;10061704;29;19934;-76
2022/10/04 21:55:18;;;;;;;;;;;;;;;12.95;95.59;101110.53;10061336;29;19936;-77
2022/10/04 22:00:23;;;;;;;;;;;;;;;12.90;95.69;101111.44;10057892;29;19967;-76
2022/10/04 22:05:26;;;;;;;;;;;;;;;12.79;95.87;101117.59;10060264;29;20362;-76
2022/10/04 22:10:29;;;;;;;;;;;;;;;12.68;96.43;101113.34;10060465;29;19928;-76
2022/10/04 22:15:34;;;;;;;;;;;;;;;12.65;96.23;101121.13;10060206;29;20018;-77
2022/10/04 22:20:37;;;;;;;;;;;;;;;12.67;96.37;101132.41;10062034;29;19928;-76
2022/10/04 22:25:40;;;;;;;;;;;;;;;12.59;96.99;101142.91;10068414;29;19991;-76
2022/10/04 22:30:45;;;;;;;;;;;;;;;12.60;96.74;101133.31;10068245;29;20026;-77
2022/10/04 22:35:48;;;;;;;;;;;;;;;12.53;97.47;101144.66;10068072;29;19941;-75
2022/10/04 22:40:51;;;;;;;;;;;;;;;12.48;96.61;101156.84;9730232;29;10000353;-72
2022/10/04 22:45:56;;;;;;;;;;;;;;;12.46;97.61;101163.78;10064677;29;20283;-70
2022/10/04 22:50:59;;;;;;;;;;;;;;;12.43;98.12;101167.28;10065124;29;20019;-72
2022/10/04 22:56:02;;;;;;;;;;;;;;;12.40;97.72;101167.31;10064443;29;20313;-70
2022/10/04 23:01:12;;;;;;;;;;;;;;;12.27;98.68;101173.41;10064159;29;19928;-70
2022/10/04 23:06:15;;;;;;;;;;;;;;;12.42;98.17;101173.38;10064011;29;20432;-68
2022/10/04 23:11:18;;;;;;;;;;;;;;;12.35;97.84;101166.47;10063882;29;19928;-69
2022/10/04 23:16:23;;;;;;;;;;;;;;;12.35;97.29;101166.47;10063995;29;19938;-71
2022/10/04 23:21:30;;;;;;;;;;;;;;;12.27;98.11;101162.16;10063861;29;20377;-66
2022/10/04 23:26:36;;;;;;;;;;;;;;;12.24;98.15;101167.34;10063264;29;19927;-69
2022/10/04 23:31:40;;;;;;;;;;;;;;;12.35;97.91;101166.47;10062347;29;20026;-66
2022/10/04 23:36:43;;;;;;;;;;;;;;;12.22;97.47;101164.75;10062759;29;19983;-66
2022/10/04 23:41:47;;;;;;;;;;;;;;;12.21;97.71;101167.38;10062569;29;20041;-67
2022/10/04 23:46:51;;;;;;;;;;;;;;;12.31;97.86;101163.84;10062850;29;19974;-68
2022/10/04 23:51:57;;;;;;;;;;;;;;;12.31;96.94;101158.66;10062487;29;19939;-67
2022/10/04 23:57:00;;;;;;;;;;;;;;;12.22;97.71;101154.34;10062130;29;19929;-66
